Beckers Corners, New York
Current Conditions -  °F | °C
As of 5:51 PM on Tuesday 21 Oct 2014 (Local Time) from KALB Reporting Station
Light Rain Light Rain  
Wind Chill: 54°   Ceiling: 7500
Heat Index: 54°   Visibility: 10mi
Dew Point: 50°   Wind: 8mph
Humidity: 86%   Direction: 10°N
Pressure: 29.93"   Gusts: NA
Location:  42.5455°N, 73.8296°W
Report Text: KALB 212151Z 01007KT 10SM -RA SCT010 SCT016 BKN075 12/10 A2993 RMK AO2 RAE05B29 SLP136 PCPN VRY LGT P0000 T01220100
Loading
Personal Weather Stations






























Interactive Weather Map New forecast layout! Learn more

10-Day Weather Forecast

Advertisements
Track Severe Weather on mobile